sensor_id;sensor_type;location;lat;lon;timestamp;P1;durP1;ratioP1;P2;durP2;ratioP2
76393;SDS011;65216;51.090;-115.352;2023-05-13T00:00:20;4.60;;;1.20;;
76393;SDS011;65216;51.090;-115.352;2023-05-13T00:02:50;6.20;;;1.20;;
76393;SDS011;65216;51.090;-115.352;2023-05-13T00:05:17;7.50;;;1.30;;
76393;SDS011;65216;51.090;-115.352;2023-05-13T00:07:44;8.00;;;1.40;;
76393;SDS011;65216;51.090;-115.352;2023-05-13T00:10:12;6.30;;;1.00;;
76393;SDS011;65216;51.090;-115.352;2023-05-13T00:12:41;6.90;;;1.20;;
76393;SDS011;65216;51.090;-115.352;2023-05-13T00:15:14;5.40;;;1.10;;
76393;SDS011;65216;51.090;-115.352;2023-05-13T00:17:46;7.90;;;1.10;;
76393;SDS011;65216;51.090;-115.352;2023-05-13T00:20:13;11.60;;;1.40;;
76393;SDS011;65216;51.090;-115.352;2023-05-13T00:22:42;6.30;;;1.50;;
76393;SDS011;65216;51.090;-115.352;2023-05-13T00:25:09;11.40;;;1.70;;
76393;SDS011;65216;51.090;-115.352;2023-05-13T00:27:37;7.10;;;1.30;;
76393;SDS011;65216;51.090;-115.352;2023-05-13T00:30:05;7.30;;;1.40;;
76393;SDS011;65216;51.090;-115.352;2023-05-13T00:32:34;7.50;;;1.40;;
76393;SDS011;65216;51.090;-115.352;2023-05-13T00:35:02;6.00;;;1.30;;
76393;SDS011;65216;51.090;-115.352;2023-05-13T00:37:29;7.50;;;1.40;;
76393;SDS011;65216;51.090;-115.352;2023-05-13T00:40:00;8.90;;;1.30;;
76393;SDS011;65216;51.090;-115.352;2023-05-13T00:42:48;6.60;;;1.40;;
76393;SDS011;65216;51.090;-115.352;2023-05-13T00:45:16;9.50;;;1.20;;
76393;SDS011;65216;51.090;-115.352;2023-05-13T00:47:43;6.20;;;1.20;;
76393;SDS011;65216;51.090;-115.352;2023-05-13T00:50:11;4.00;;;1.10;;
76393;SDS011;65216;51.090;-115.352;2023-05-13T00:52:43;4.60;;;1.10;;
76393;SDS011;65216;51.090;-115.352;2023-05-13T00:55:11;9.80;;;1.30;;
76393;SDS011;65216;51.090;-115.352;2023-05-13T00:57:40;9.20;;;1.30;;
76393;SDS011;65216;51.090;-115.352;2023-05-13T01:00:08;6.20;;;1.30;;
76393;SDS011;65216;51.090;-115.352;2023-05-13T01:03:11;5.20;;;1.30;;
76393;SDS011;65216;51.090;-115.352;2023-05-13T01:06:00;10.90;;;1.30;;
76393;SDS011;65216;51.090;-115.352;2023-05-13T01:11:34;8.00;;;1.50;;
76393;SDS011;65216;51.090;-115.352;2023-05-13T01:14:12;10.20;;;1.40;;
76393;SDS011;65216;51.090;-115.352;2023-05-13T01:17:27;7.70;;;1.50;;
76393;SDS011;65216;51.090;-115.352;2023-05-13T01:19:55;6.90;;;1.20;;
76393;SDS011;65216;51.090;-115.352;2023-05-13T01:22:25;7.00;;;1.40;;
76393;SDS011;65216;51.090;-115.352;2023-05-13T01:24:52;5.90;;;1.50;;
76393;SDS011;65216;51.090;-115.352;2023-05-13T01:27:22;7.40;;;1.70;;
76393;SDS011;65216;51.090;-115.352;2023-05-13T01:29:51;4.50;;;1.20;;
76393;SDS011;65216;51.090;-115.352;2023-05-13T01:32:32;7.10;;;1.50;;
76393;SDS011;65216;51.090;-115.352;2023-05-13T01:35:26;5.20;;;1.50;;
76393;SDS011;65216;51.090;-115.352;2023-05-13T01:38:01;9.60;;;1.60;;
76393;SDS011;65216;51.090;-115.352;2023-05-13T01:40:30;9.60;;;1.20;;
76393;SDS011;65216;51.090;-115.352;2023-05-13T01:43:01;5.00;;;1.30;;
76393;SDS011;65216;51.090;-115.352;2023-05-13T01:45:29;7.10;;;1.40;;
76393;SDS011;65216;51.090;-115.352;2023-05-13T01:47:56;4.90;;;1.30;;
76393;SDS011;65216;51.090;-115.352;2023-05-13T01:50:27;8.50;;;1.80;;
76393;SDS011;65216;51.090;-115.352;2023-05-13T01:52:53;8.00;;;1.40;;
76393;SDS011;65216;51.090;-115.352;2023-05-13T01:55:22;8.00;;;1.20;;
76393;SDS011;65216;51.090;-115.352;2023-05-13T01:57:51;5.40;;;1.50;;
76393;SDS011;65216;51.090;-115.352;2023-05-13T02:00:18;5.80;;;1.50;;
76393;SDS011;65216;51.090;-115.352;2023-05-13T02:02:46;5.10;;;1.20;;
76393;SDS011;65216;51.090;-115.352;2023-05-13T02:05:13;6.20;;;1.50;;
76393;SDS011;65216;51.090;-115.352;2023-05-13T02:07:50;6.40;;;1.20;;
76393;SDS011;65216;51.090;-115.352;2023-05-13T02:10:26;7.50;;;1.50;;
76393;SDS011;65216;51.090;-115.352;2023-05-13T02:12:53;7.90;;;1.60;;
76393;SDS011;65216;51.090;-115.352;2023-05-13T02:15:20;8.60;;;1.50;;
76393;SDS011;65216;51.090;-115.352;2023-05-13T02:17:47;9.00;;;1.60;;
76393;SDS011;65216;51.090;-115.352;2023-05-13T02:20:14;3.30;;;1.30;;
76393;SDS011;65216;51.090;-115.352;2023-05-13T02:22:42;6.10;;;1.60;;
76393;SDS011;65216;51.090;-115.352;2023-05-13T02:25:09;8.90;;;1.70;;
76393;SDS011;65216;51.090;-115.352;2023-05-13T02:27:36;5.10;;;1.80;;
76393;SDS011;65216;51.090;-115.352;2023-05-13T02:30:03;5.70;;;1.90;;
76393;SDS011;65216;51.090;-115.352;2023-05-13T02:32:31;6.50;;;1.90;;
76393;SDS011;65216;51.090;-115.352;2023-05-13T02:34:58;7.60;;;1.70;;
76393;SDS011;65216;51.090;-115.352;2023-05-13T02:41:00;7.30;;;1.80;;
76393;SDS011;65216;51.090;-115.352;2023-05-13T02:43:27;7.40;;;1.80;;
76393;SDS011;65216;51.090;-115.352;2023-05-13T02:45:55;8.40;;;2.00;;
76393;SDS011;65216;51.090;-115.352;2023-05-13T02:48:22;5.00;;;2.00;;
76393;SDS011;65216;51.090;-115.352;2023-05-13T02:58:39;9.80;;;1.80;;
76393;SDS011;65216;51.090;-115.352;2023-05-13T03:01:11;12.80;;;2.30;;
76393;SDS011;65216;51.090;-115.352;2023-05-13T03:03:39;9.10;;;2.00;;
76393;SDS011;65216;51.090;-115.352;2023-05-13T03:06:08;11.40;;;2.20;;
76393;SDS011;65216;51.090;-115.352;2023-05-13T03:08:36;14.00;;;2.20;;
76393;SDS011;65216;51.090;-115.352;2023-05-13T03:11:06;6.50;;;2.00;;
76393;SDS011;65216;51.090;-115.352;2023-05-13T03:13:33;6.10;;;2.20;;
76393;SDS011;65216;51.090;-115.352;2023-05-13T03:16:02;8.50;;;2.30;;
76393;SDS011;65216;51.090;-115.352;2023-05-13T03:18:29;9.60;;;2.10;;
76393;SDS011;65216;51.090;-115.352;2023-05-13T03:20:57;11.50;;;2.20;;
76393;SDS011;65216;51.090;-115.352;2023-05-13T03:23:27;10.10;;;2.40;;
76393;SDS011;65216;51.090;-115.352;2023-05-13T03:25:54;8.80;;;2.40;;
76393;SDS011;65216;51.090;-115.352;2023-05-13T03:28:21;8.00;;;1.90;;
76393;SDS011;65216;51.090;-115.352;2023-05-13T03:30:48;9.80;;;2.30;;
76393;SDS011;65216;51.090;-115.352;2023-05-13T03:33:16;9.80;;;2.30;;
76393;SDS011;65216;51.090;-115.352;2023-05-13T03:35:56;10.10;;;2.40;;
76393;SDS011;65216;51.090;-115.352;2023-05-13T03:38:25;6.10;;;2.20;;
76393;SDS011;65216;51.090;-115.352;2023-05-13T03:40:56;6.30;;;2.00;;
76393;SDS011;65216;51.090;-115.352;2023-05-13T03:43:23;4.90;;;1.80;;
76393;SDS011;65216;51.090;-115.352;2023-05-13T03:45:50;5.40;;;2.10;;
76393;SDS011;65216;51.090;-115.352;2023-05-13T03:48:20;6.60;;;2.00;;
76393;SDS011;65216;51.090;-115.352;2023-05-13T03:50:49;5.40;;;1.80;;
76393;SDS011;65216;51.090;-115.352;2023-05-13T03:53:18;4.60;;;1.90;;
76393;SDS011;65216;51.090;-115.352;2023-05-13T03:55:45;4.70;;;1.60;;
76393;SDS011;65216;51.090;-115.352;2023-05-13T03:58:15;4.90;;;2.00;;
76393;SDS011;65216;51.090;-115.352;2023-05-13T04:00:42;5.90;;;2.10;;
76393;SDS011;65216;51.090;-115.352;2023-05-13T04:03:14;5.40;;;2.00;;
76393;SDS011;65216;51.090;-115.352;2023-05-13T04:05:43;4.90;;;1.70;;
76393;SDS011;65216;51.090;-115.352;2023-05-13T04:08:11;4.90;;;1.90;;
76393;SDS011;65216;51.090;-115.352;2023-05-13T04:10:38;4.20;;;2.20;;
76393;SDS011;65216;51.090;-115.352;2023-05-13T04:13:06;4.40;;;1.80;;
76393;SDS011;65216;51.090;-115.352;2023-05-13T04:15:33;4.30;;;2.20;;
76393;SDS011;65216;51.090;-115.352;2023-05-13T04:18:03;4.00;;;1.80;;
76393;SDS011;65216;51.090;-115.352;2023-05-13T04:20:33;4.40;;;1.90;;
76393;SDS011;65216;51.090;-115.352;2023-05-13T04:23:02;4.70;;;1.90;;
76393;SDS011;65216;51.090;-115.352;2023-05-13T04:25:33;3.50;;;1.90;;
76393;SDS011;65216;51.090;-115.352;2023-05-13T04:28:02;4.10;;;1.90;;
76393;SDS011;65216;51.090;-115.352;2023-05-13T04:30:29;3.60;;;2.00;;
76393;SDS011;65216;51.090;-115.352;2023-05-13T04:32:56;4.10;;;2.00;;
76393;SDS011;65216;51.090;-115.352;2023-05-13T04:35:23;4.30;;;1.80;;
76393;SDS011;65216;51.090;-115.352;2023-05-13T04:37:52;5.00;;;2.10;;
76393;SDS011;65216;51.090;-115.352;2023-05-13T04:40:19;4.20;;;2.00;;
76393;SDS011;65216;51.090;-115.352;2023-05-13T04:42:46;3.50;;;1.50;;
76393;SDS011;65216;51.090;-115.352;2023-05-13T04:45:20;3.80;;;1.70;;
76393;SDS011;65216;51.090;-115.352;2023-05-13T04:47:49;3.40;;;1.80;;
76393;SDS011;65216;51.090;-115.352;2023-05-13T04:50:16;3.90;;;1.70;;
76393;SDS011;65216;51.090;-115.352;2023-05-13T04:52:43;4.20;;;2.00;;
76393;SDS011;65216;51.090;-115.352;2023-05-13T04:55:12;3.60;;;1.80;;
76393;SDS011;65216;51.090;-115.352;2023-05-13T04:57:39;4.40;;;1.80;;
76393;SDS011;65216;51.090;-115.352;2023-05-13T05:00:10;3.70;;;1.80;;
76393;SDS011;65216;51.090;-115.352;2023-05-13T05:02:37;3.90;;;1.90;;
76393;SDS011;65216;51.090;-115.352;2023-05-13T05:05:05;3.40;;;1.70;;
76393;SDS011;65216;51.090;-115.352;2023-05-13T05:07:32;7.50;;;2.20;;
76393;SDS011;65216;51.090;-115.352;2023-05-13T05:10:00;6.60;;;2.40;;
76393;SDS011;65216;51.090;-115.352;2023-05-13T05:12:27;4.00;;;2.10;;
76393;SDS011;65216;51.090;-115.352;2023-05-13T05:14:56;5.90;;;2.00;;
76393;SDS011;65216;51.090;-115.352;2023-05-13T05:17:28;3.70;;;1.80;;
76393;SDS011;65216;51.090;-115.352;2023-05-13T05:19:58;3.70;;;1.90;;
76393;SDS011;65216;51.090;-115.352;2023-05-13T05:22:26;4.40;;;1.90;;
76393;SDS011;65216;51.090;-115.352;2023-05-13T05:24:53;4.40;;;1.70;;
76393;SDS011;65216;51.090;-115.352;2023-05-13T05:27:20;4.50;;;2.00;;
76393;SDS011;65216;51.090;-115.352;2023-05-13T05:29:47;4.00;;;1.90;;
76393;SDS011;65216;51.090;-115.352;2023-05-13T05:32:18;5.50;;;2.40;;
76393;SDS011;65216;51.090;-115.352;2023-05-13T05:34:45;4.10;;;1.90;;
76393;SDS011;65216;51.090;-115.352;2023-05-13T05:37:12;4.10;;;2.20;;
76393;SDS011;65216;51.090;-115.352;2023-05-13T05:39:39;3.80;;;2.00;;
76393;SDS011;65216;51.090;-115.352;2023-05-13T05:42:09;4.30;;;2.20;;
76393;SDS011;65216;51.090;-115.352;2023-05-13T05:44:36;5.30;;;2.10;;
76393;SDS011;65216;51.090;-115.352;2023-05-13T05:47:03;4.10;;;2.10;;
76393;SDS011;65216;51.090;-115.352;2023-05-13T05:49:30;3.10;;;1.80;;
76393;SDS011;65216;51.090;-115.352;2023-05-13T05:51:57;3.70;;;1.80;;
76393;SDS011;65216;51.090;-115.352;2023-05-13T05:54:24;3.70;;;1.90;;
76393;SDS011;65216;51.090;-115.352;2023-05-13T05:56:52;4.30;;;1.90;;
76393;SDS011;65216;51.090;-115.352;2023-05-13T05:59:19;5.00;;;2.40;;
76393;SDS011;65216;51.090;-115.352;2023-05-13T06:01:46;6.50;;;2.20;;
76393;SDS011;65216;51.090;-115.352;2023-05-13T06:04:13;4.70;;;2.00;;
76393;SDS011;65216;51.090;-115.352;2023-05-13T06:06:40;5.20;;;1.80;;
76393;SDS011;65216;51.090;-115.352;2023-05-13T06:09:07;5.20;;;2.10;;
76393;SDS011;65216;51.090;-115.352;2023-05-13T06:11:33;4.10;;;2.10;;
76393;SDS011;65216;51.090;-115.352;2023-05-13T06:14:00;4.50;;;2.00;;
76393;SDS011;65216;51.090;-115.352;2023-05-13T06:16:28;3.90;;;1.90;;
76393;SDS011;65216;51.090;-115.352;2023-05-13T06:18:55;4.20;;;2.00;;
76393;SDS011;65216;51.090;-115.352;2023-05-13T06:21:21;3.40;;;1.70;;
76393;SDS011;65216;51.090;-115.352;2023-05-13T06:23:48;4.70;;;2.00;;
76393;SDS011;65216;51.090;-115.352;2023-05-13T06:26:15;4.50;;;1.90;;
76393;SDS011;65216;51.090;-115.352;2023-05-13T06:28:42;4.30;;;1.90;;
76393;SDS011;65216;51.090;-115.352;2023-05-13T06:31:09;4.20;;;2.20;;
76393;SDS011;65216;51.090;-115.352;2023-05-13T06:33:36;4.70;;;2.00;;
76393;SDS011;65216;51.090;-115.352;2023-05-13T06:36:03;4.60;;;2.20;;
76393;SDS011;65216;51.090;-115.352;2023-05-13T06:38:31;4.40;;;2.40;;
76393;SDS011;65216;51.090;-115.352;2023-05-13T06:40:59;4.10;;;2.00;;
76393;SDS011;65216;51.090;-115.352;2023-05-13T06:43:26;3.80;;;1.60;;
76393;SDS011;65216;51.090;-115.352;2023-05-13T06:45:53;4.00;;;2.00;;
76393;SDS011;65216;51.090;-115.352;2023-05-13T06:48:22;3.90;;;1.90;;
76393;SDS011;65216;51.090;-115.352;2023-05-13T06:50:50;4.80;;;1.60;;
76393;SDS011;65216;51.090;-115.352;2023-05-13T06:53:19;4.20;;;1.80;;
76393;SDS011;65216;51.090;-115.352;2023-05-13T06:55:46;4.50;;;2.00;;
76393;SDS011;65216;51.090;-115.352;2023-05-13T06:58:13;3.80;;;2.00;;
76393;SDS011;65216;51.090;-115.352;2023-05-13T07:00:40;4.80;;;2.10;;
76393;SDS011;65216;51.090;-115.352;2023-05-13T07:03:11;4.20;;;2.00;;
76393;SDS011;65216;51.090;-115.352;2023-05-13T07:05:38;4.00;;;2.10;;
76393;SDS011;65216;51.090;-115.352;2023-05-13T07:08:05;4.30;;;1.90;;
76393;SDS011;65216;51.090;-115.352;2023-05-13T07:10:34;4.50;;;1.80;;
76393;SDS011;65216;51.090;-115.352;2023-05-13T07:13:05;3.70;;;1.80;;
76393;SDS011;65216;51.090;-115.352;2023-05-13T07:15:32;5.20;;;2.00;;
76393;SDS011;65216;51.090;-115.352;2023-05-13T07:17:59;4.00;;;1.80;;
76393;SDS011;65216;51.090;-115.352;2023-05-13T07:20:26;5.60;;;2.00;;
76393;SDS011;65216;51.090;-115.352;2023-05-13T07:22:53;5.00;;;2.10;;
76393;SDS011;65216;51.090;-115.352;2023-05-13T07:25:22;3.50;;;1.80;;
76393;SDS011;65216;51.090;-115.352;2023-05-13T07:27:52;3.70;;;2.00;;
76393;SDS011;65216;51.090;-115.352;2023-05-13T07:30:19;3.90;;;1.90;;
76393;SDS011;65216;51.090;-115.352;2023-05-13T07:32:46;4.60;;;1.70;;
76393;SDS011;65216;51.090;-115.352;2023-05-13T07:35:14;3.90;;;1.90;;
76393;SDS011;65216;51.090;-115.352;2023-05-13T07:37:43;3.70;;;1.60;;
76393;SDS011;65216;51.090;-115.352;2023-05-13T07:40:10;4.60;;;1.70;;
76393;SDS011;65216;51.090;-115.352;2023-05-13T07:42:41;3.50;;;1.80;;
76393;SDS011;65216;51.090;-115.352;2023-05-13T07:45:08;4.50;;;1.80;;
76393;SDS011;65216;51.090;-115.352;2023-05-13T07:47:35;3.00;;;1.60;;
76393;SDS011;65216;51.090;-115.352;2023-05-13T07:50:06;4.30;;;2.00;;
76393;SDS011;65216;51.090;-115.352;2023-05-13T07:52:34;3.50;;;1.80;;
76393;SDS011;65216;51.090;-115.352;2023-05-13T07:55:07;4.10;;;1.80;;
76393;SDS011;65216;51.090;-115.352;2023-05-13T07:57:35;3.50;;;1.60;;
76393;SDS011;65216;51.090;-115.352;2023-05-13T08:00:02;3.30;;;1.70;;
76393;SDS011;65216;51.090;-115.352;2023-05-13T08:02:30;3.00;;;1.70;;
76393;SDS011;65216;51.090;-115.352;2023-05-13T08:05:02;3.60;;;1.90;;
76393;SDS011;65216;51.090;-115.352;2023-05-13T08:07:29;3.60;;;1.90;;
76393;SDS011;65216;51.090;-115.352;2023-05-13T08:09:56;3.70;;;1.60;;
76393;SDS011;65216;51.090;-115.352;2023-05-13T08:12:23;3.50;;;1.90;;
76393;SDS011;65216;51.090;-115.352;2023-05-13T08:14:50;3.80;;;1.70;;
76393;SDS011;65216;51.090;-115.352;2023-05-13T08:17:17;3.30;;;1.70;;
76393;SDS011;65216;51.090;-115.352;2023-05-13T08:19:44;3.50;;;1.80;;
76393;SDS011;65216;51.090;-115.352;2023-05-13T08:22:11;3.10;;;1.30;;
76393;SDS011;65216;51.090;-115.352;2023-05-13T08:24:41;3.10;;;1.40;;
76393;SDS011;65216;51.090;-115.352;2023-05-13T08:27:08;3.70;;;1.50;;
76393;SDS011;65216;51.090;-115.352;2023-05-13T08:29:35;3.90;;;1.80;;
76393;SDS011;65216;51.090;-115.352;2023-05-13T08:32:03;3.60;;;1.40;;
76393;SDS011;65216;51.090;-115.352;2023-05-13T08:34:30;3.40;;;1.50;;
76393;SDS011;65216;51.090;-115.352;2023-05-13T08:36:57;3.40;;;1.60;;
76393;SDS011;65216;51.090;-115.352;2023-05-13T08:39:24;3.10;;;1.40;;
76393;SDS011;65216;51.090;-115.352;2023-05-13T08:41:55;4.00;;;1.50;;
76393;SDS011;65216;51.090;-115.352;2023-05-13T08:44:28;2.80;;;1.50;;
76393;SDS011;65216;51.090;-115.352;2023-05-13T08:50:06;3.00;;;1.50;;
76393;SDS011;65216;51.090;-115.352;2023-05-13T08:52:33;3.00;;;1.40;;
76393;SDS011;65216;51.090;-115.352;2023-05-13T08:55:04;3.40;;;1.70;;
76393;SDS011;65216;51.090;-115.352;2023-05-13T08:57:33;3.20;;;1.50;;
76393;SDS011;65216;51.090;-115.352;2023-05-13T09:00:02;3.60;;;1.60;;
76393;SDS011;65216;51.090;-115.352;2023-05-13T09:02:32;2.90;;;1.60;;
76393;SDS011;65216;51.090;-115.352;2023-05-13T09:05:05;3.10;;;1.40;;
76393;SDS011;65216;51.090;-115.352;2023-05-13T09:07:34;3.70;;;1.70;;
76393;SDS011;65216;51.090;-115.352;2023-05-13T09:10:03;3.50;;;1.40;;
76393;SDS011;65216;51.090;-115.352;2023-05-13T09:15:15;3.20;;;1.50;;
76393;SDS011;65216;51.090;-115.352;2023-05-13T09:17:47;3.20;;;1.50;;
76393;SDS011;65216;51.090;-115.352;2023-05-13T09:20:20;2.60;;;1.40;;
76393;SDS011;65216;51.090;-115.352;2023-05-13T09:22:53;3.10;;;1.40;;
76393;SDS011;65216;51.090;-115.352;2023-05-13T09:25:21;2.90;;;1.40;;
76393;SDS011;65216;51.090;-115.352;2023-05-13T09:27:53;2.90;;;1.50;;
76393;SDS011;65216;51.090;-115.352;2023-05-13T09:30:34;2.50;;;1.20;;
76393;SDS011;65216;51.090;-115.352;2023-05-13T09:33:08;3.50;;;1.30;;
76393;SDS011;65216;51.090;-115.352;2023-05-13T09:35:52;3.20;;;1.50;;
76393;SDS011;65216;51.090;-115.352;2023-05-13T09:38:20;2.30;;;1.20;;
76393;SDS011;65216;51.090;-115.352;2023-05-13T09:40:55;3.10;;;1.40;;
76393;SDS011;65216;51.090;-115.352;2023-05-13T09:43:26;3.00;;;1.40;;
76393;SDS011;65216;51.090;-115.352;2023-05-13T09:46:00;3.10;;;1.40;;
76393;SDS011;65216;51.090;-115.352;2023-05-13T09:48:32;3.30;;;1.30;;
76393;SDS011;65216;51.090;-115.352;2023-05-13T09:51:00;2.90;;;1.50;;
76393;SDS011;65216;51.090;-115.352;2023-05-13T09:53:27;2.70;;;1.30;;
76393;SDS011;65216;51.090;-115.352;2023-05-13T09:55:56;2.70;;;1.40;;
76393;SDS011;65216;51.090;-115.352;2023-05-13T09:58:26;3.50;;;1.40;;
76393;SDS011;65216;51.090;-115.352;2023-05-13T10:00:56;3.30;;;1.30;;
76393;SDS011;65216;51.090;-115.352;2023-05-13T10:03:23;2.50;;;1.30;;
76393;SDS011;65216;51.090;-115.352;2023-05-13T10:05:51;3.30;;;1.30;;
76393;SDS011;65216;51.090;-115.352;2023-05-13T10:08:22;2.90;;;1.30;;
76393;SDS011;65216;51.090;-115.352;2023-05-13T10:10:54;3.80;;;1.40;;
76393;SDS011;65216;51.090;-115.352;2023-05-13T10:13:23;3.10;;;1.40;;
76393;SDS011;65216;51.090;-115.352;2023-05-13T10:15:53;2.70;;;1.30;;
76393;SDS011;65216;51.090;-115.352;2023-05-13T10:18:21;2.80;;;1.30;;
76393;SDS011;65216;51.090;-115.352;2023-05-13T10:20:49;3.10;;;1.30;;
76393;SDS011;65216;51.090;-115.352;2023-05-13T10:23:22;3.40;;;1.40;;
76393;SDS011;65216;51.090;-115.352;2023-05-13T10:25:53;2.60;;;1.30;;
76393;SDS011;65216;51.090;-115.352;2023-05-13T10:28:25;2.80;;;1.30;;
76393;SDS011;65216;51.090;-115.352;2023-05-13T10:30:57;3.50;;;1.50;;
76393;SDS011;65216;51.090;-115.352;2023-05-13T10:33:23;3.60;;;1.40;;
76393;SDS011;65216;51.090;-115.352;2023-05-13T10:36:21;3.30;;;1.40;;
76393;SDS011;65216;51.090;-115.352;2023-05-13T10:42:35;2.90;;;1.30;;
76393;SDS011;65216;51.090;-115.352;2023-05-13T10:45:06;2.80;;;1.20;;
76393;SDS011;65216;51.090;-115.352;2023-05-13T10:47:35;3.40;;;1.60;;
76393;SDS011;65216;51.090;-115.352;2023-05-13T10:50:07;2.40;;;1.20;;
76393;SDS011;65216;51.090;-115.352;2023-05-13T10:52:49;3.20;;;1.40;;
76393;SDS011;65216;51.090;-115.352;2023-05-13T10:55:18;2.90;;;1.50;;
76393;SDS011;65216;51.090;-115.352;2023-05-13T10:58:11;3.20;;;1.30;;
76393;SDS011;65216;51.090;-115.352;2023-05-13T11:00:41;3.10;;;1.30;;
76393;SDS011;65216;51.090;-115.352;2023-05-13T11:03:14;3.00;;;1.40;;
76393;SDS011;65216;51.090;-115.352;2023-05-13T11:06:15;3.10;;;1.50;;
76393;SDS011;65216;51.090;-115.352;2023-05-13T11:08:46;3.10;;;1.40;;
76393;SDS011;65216;51.090;-115.352;2023-05-13T11:13:52;3.00;;;1.20;;
76393;SDS011;65216;51.090;-115.352;2023-05-13T11:17:06;2.90;;;1.20;;
76393;SDS011;65216;51.090;-115.352;2023-05-13T11:19:35;2.80;;;1.30;;
76393;SDS011;65216;51.090;-115.352;2023-05-13T11:22:17;3.20;;;1.40;;
76393;SDS011;65216;51.090;-115.352;2023-05-13T11:25:08;3.10;;;1.30;;
76393;SDS011;65216;51.090;-115.352;2023-05-13T11:27:39;2.70;;;1.40;;
76393;SDS011;65216;51.090;-115.352;2023-05-13T11:30:20;2.90;;;1.20;;
76393;SDS011;65216;51.090;-115.352;2023-05-13T11:32:58;2.70;;;1.30;;
76393;SDS011;65216;51.090;-115.352;2023-05-13T11:40:28;3.30;;;1.20;;
76393;SDS011;65216;51.090;-115.352;2023-05-13T11:42:57;3.90;;;1.30;;
76393;SDS011;65216;51.090;-115.352;2023-05-13T11:45:26;2.40;;;1.20;;
76393;SDS011;65216;51.090;-115.352;2023-05-13T11:47:54;2.30;;;1.20;;
76393;SDS011;65216;51.090;-115.352;2023-05-13T11:50:29;2.70;;;1.20;;
76393;SDS011;65216;51.090;-115.352;2023-05-13T11:52:59;3.20;;;1.30;;
76393;SDS011;65216;51.090;-115.352;2023-05-13T11:55:33;2.50;;;1.20;;
76393;SDS011;65216;51.090;-115.352;2023-05-13T11:58:03;2.10;;;1.00;;
76393;SDS011;65216;51.090;-115.352;2023-05-13T12:00:34;2.90;;;1.20;;
76393;SDS011;65216;51.090;-115.352;2023-05-13T12:03:09;2.70;;;1.20;;
76393;SDS011;65216;51.090;-115.352;2023-05-13T12:05:40;3.00;;;1.10;;
76393;SDS011;65216;51.090;-115.352;2023-05-13T12:08:10;2.70;;;1.10;;
76393;SDS011;65216;51.090;-115.352;2023-05-13T12:10:44;2.90;;;1.30;;
76393;SDS011;65216;51.090;-115.352;2023-05-13T12:13:11;2.30;;;1.00;;
76393;SDS011;65216;51.090;-115.352;2023-05-13T12:15:39;2.60;;;1.00;;
76393;SDS011;65216;51.090;-115.352;2023-05-13T12:18:07;2.70;;;1.20;;
76393;SDS011;65216;51.090;-115.352;2023-05-13T12:20:34;2.60;;;1.30;;
76393;SDS011;65216;51.090;-115.352;2023-05-13T12:23:03;2.60;;;1.00;;
76393;SDS011;65216;51.090;-115.352;2023-05-13T12:33:29;2.20;;;1.00;;
76393;SDS011;65216;51.090;-115.352;2023-05-13T12:36:26;3.00;;;1.30;;
76393;SDS011;65216;51.090;-115.352;2023-05-13T12:39:08;2.60;;;1.20;;
76393;SDS011;65216;51.090;-115.352;2023-05-13T12:41:40;2.10;;;1.00;;
76393;SDS011;65216;51.090;-115.352;2023-05-13T12:44:11;2.50;;;1.10;;
76393;SDS011;65216;51.090;-115.352;2023-05-13T12:46:52;2.60;;;1.10;;
76393;SDS011;65216;51.090;-115.352;2023-05-13T12:49:20;2.30;;;1.00;;
76393;SDS011;65216;51.090;-115.352;2023-05-13T12:51:50;1.90;;;1.00;;
76393;SDS011;65216;51.090;-115.352;2023-05-13T12:54:17;2.90;;;1.10;;
76393;SDS011;65216;51.090;-115.352;2023-05-13T12:56:44;3.30;;;1.20;;
76393;SDS011;65216;51.090;-115.352;2023-05-13T12:59:11;2.50;;;1.10;;
76393;SDS011;65216;51.090;-115.352;2023-05-13T13:01:39;2.30;;;1.10;;
76393;SDS011;65216;51.090;-115.352;2023-05-13T13:04:08;2.30;;;1.10;;
76393;SDS011;65216;51.090;-115.352;2023-05-13T13:06:39;2.80;;;1.20;;
76393;SDS011;65216;51.090;-115.352;2023-05-13T13:09:05;3.00;;;1.20;;
76393;SDS011;65216;51.090;-115.352;2023-05-13T13:11:32;2.20;;;1.00;;
76393;SDS011;65216;51.090;-115.352;2023-05-13T13:13:59;2.20;;;1.00;;
76393;SDS011;65216;51.090;-115.352;2023-05-13T13:16:27;3.10;;;1.30;;
76393;SDS011;65216;51.090;-115.352;2023-05-13T13:18:56;1.90;;;1.00;;
76393;SDS011;65216;51.090;-115.352;2023-05-13T13:21:26;2.40;;;1.10;;
76393;SDS011;65216;51.090;-115.352;2023-05-13T13:23:56;2.90;;;1.00;;
76393;SDS011;65216;51.090;-115.352;2023-05-13T13:26:23;2.20;;;1.10;;
76393;SDS011;65216;51.090;-115.352;2023-05-13T13:28:50;2.80;;;1.20;;
76393;SDS011;65216;51.090;-115.352;2023-05-13T13:31:17;2.60;;;1.20;;
76393;SDS011;65216;51.090;-115.352;2023-05-13T13:33:44;2.00;;;1.00;;
76393;SDS011;65216;51.090;-115.352;2023-05-13T13:36:11;2.80;;;1.20;;
76393;SDS011;65216;51.090;-115.352;2023-05-13T13:38:39;2.30;;;1.10;;
76393;SDS011;65216;51.090;-115.352;2023-05-13T13:41:06;2.40;;;1.00;;
76393;SDS011;65216;51.090;-115.352;2023-05-13T13:43:33;2.30;;;1.10;;
76393;SDS011;65216;51.090;-115.352;2023-05-13T13:46:00;2.20;;;1.10;;
76393;SDS011;65216;51.090;-115.352;2023-05-13T13:48:29;1.70;;;1.00;;
76393;SDS011;65216;51.090;-115.352;2023-05-13T13:50:56;2.30;;;1.10;;
76393;SDS011;65216;51.090;-115.352;2023-05-13T13:53:26;3.30;;;1.10;;
76393;SDS011;65216;51.090;-115.352;2023-05-13T13:55:55;2.10;;;1.00;;
76393;SDS011;65216;51.090;-115.352;2023-05-13T13:58:22;2.50;;;1.00;;
76393;SDS011;65216;51.090;-115.352;2023-05-13T14:00:52;2.70;;;1.20;;
76393;SDS011;65216;51.090;-115.352;2023-05-13T14:03:19;2.70;;;1.10;;
76393;SDS011;65216;51.090;-115.352;2023-05-13T14:05:46;2.60;;;1.00;;
76393;SDS011;65216;51.090;-115.352;2023-05-13T14:08:13;3.10;;;1.20;;
76393;SDS011;65216;51.090;-115.352;2023-05-13T14:10:44;2.60;;;1.00;;
76393;SDS011;65216;51.090;-115.352;2023-05-13T14:13:13;2.70;;;1.40;;
76393;SDS011;65216;51.090;-115.352;2023-05-13T14:15:40;2.70;;;1.20;;
76393;SDS011;65216;51.090;-115.352;2023-05-13T14:18:07;3.00;;;1.00;;
76393;SDS011;65216;51.090;-115.352;2023-05-13T14:20:35;2.50;;;1.20;;
76393;SDS011;65216;51.090;-115.352;2023-05-13T14:23:03;2.40;;;1.20;;
76393;SDS011;65216;51.090;-115.352;2023-05-13T14:25:30;2.70;;;1.10;;
76393;SDS011;65216;51.090;-115.352;2023-05-13T14:27:57;2.70;;;1.20;;
76393;SDS011;65216;51.090;-115.352;2023-05-13T14:30:27;3.40;;;1.20;;
76393;SDS011;65216;51.090;-115.352;2023-05-13T14:32:54;2.80;;;0.80;;
76393;SDS011;65216;51.090;-115.352;2023-05-13T14:35:21;2.40;;;1.10;;
76393;SDS011;65216;51.090;-115.352;2023-05-13T14:37:48;2.40;;;1.10;;
76393;SDS011;65216;51.090;-115.352;2023-05-13T14:40:18;2.30;;;1.20;;
76393;SDS011;65216;51.090;-115.352;2023-05-13T14:42:44;2.50;;;1.10;;
76393;SDS011;65216;51.090;-115.352;2023-05-13T14:45:11;10.70;;;1.80;;
76393;SDS011;65216;51.090;-115.352;2023-05-13T14:47:38;3.50;;;1.20;;
76393;SDS011;65216;51.090;-115.352;2023-05-13T14:50:08;3.50;;;1.60;;
76393;SDS011;65216;51.090;-115.352;2023-05-13T14:52:37;3.90;;;1.10;;
76393;SDS011;65216;51.090;-115.352;2023-05-13T14:55:06;4.40;;;1.30;;
76393;SDS011;65216;51.090;-115.352;2023-05-13T14:57:38;6.20;;;1.10;;
76393;SDS011;65216;51.090;-115.352;2023-05-13T15:00:08;2.90;;;1.30;;
76393;SDS011;65216;51.090;-115.352;2023-05-13T15:02:35;5.70;;;1.30;;